»·PEaware :: N918Y KSMO-KSBA

N918Y :: KSMO-KSBA

FLIGHT INFORMATION

Flight Status: Arrived
Operator: Privately registered:
United States
More flights under this callsign
Pilot: Arvid H. (3090)
Aircraft: PIPER PA-30 TWIN COMANCHE
(PA30)
More flights by this aircraft type
Origin: KSMO Santa Monica Mun
United States
Destination: KSBA Santa Barbara Mun
United States
More flights between these airports :: More routes between these airports
Route: SMO V107 SADDE V299 VTU VTU282R KWANG
File this flight plan on PilotEdge
Remarks: SMOP38
Altitude:
(Current/Filed)
6,000ft
Speed:
(Current/Filed)
170kts
Departed: 28-Feb-19 08:54 AM
Arrived: 28-Feb-19 09:30 AM
Distance/Time
Traveled:
73nm/0:36
Distance/Time
To Go:
Arrived

Flight Plot

Page will automatically refresh every two minutes.


Map Options




Map Legend


Flown Route
Filed Route
Departure Airport
Arrival Airport
Navaid (VOR, NDB)
Fix

Horizontal Profiles

Position Reports

Time Latitude Longitude Heading Altitude Ground
Speed
28-Feb-19 08:36 34.016690 -118.452134 135 145ft 0kts
28-Feb-19 08:37 34.016690 -118.452134 135 145ft 0kts
28-Feb-19 08:38 34.016690 -118.452134 135 145ft 0kts
28-Feb-19 08:39 34.016690 -118.452134 135 145ft 0kts
28-Feb-19 08:40 34.016690 -118.452134 135 145ft 0kts
28-Feb-19 08:41 34.016690 -118.452134 135 145ft 0kts
28-Feb-19 08:42 34.016690 -118.452134 135 145ft 0kts
28-Feb-19 08:43 34.016690 -118.452134 135 145ft 0kts
28-Feb-19 08:44 34.016690 -118.452134 135 145ft 0kts
28-Feb-19 08:45 34.016690 -118.452134 135 145ft 0kts
28-Feb-19 08:46 34.016690 -118.452134 135 145ft 0kts
28-Feb-19 08:47 34.016690 -118.452134 135 145ft 0kts
28-Feb-19 08:48 34.016690 -118.452134 135 145ft 0kts
28-Feb-19 08:49 34.016690 -118.452134 135 145ft 0kts
28-Feb-19 08:50 34.017150 -118.450855 45 148ft 9kts
28-Feb-19 08:51 34.019197 -118.448430 45 164ft 12kts
28-Feb-19 08:52 34.019586 -118.447760 129 166ft 0kts
28-Feb-19 08:53 34.016904 -118.450036 224 147ft 76kts
28-Feb-19 08:54 33.995254 -118.473413 220 1067ft 113kts
28-Feb-19 08:55 33.981979 -118.505416 263 2212ft 111kts
28-Feb-19 08:56 33.977980 -118.542025 263 3320ft 108kts
28-Feb-19 08:58 33.988435 -118.572608 312 4381ft 105kts
28-Feb-19 08:59 34.009051 -118.596733 312 5377ft 102kts
28-Feb-19 09:00 34.024008 -118.625478 280 6015ft 116kts
28-Feb-19 09:01 34.030547 -118.668383 276 6004ft 136kts
28-Feb-19 09:02 34.036004 -118.714152 275 6003ft 138kts
28-Feb-19 09:03 34.041266 -118.760020 283 6002ft 139kts
28-Feb-19 09:04 34.050601 -118.805395 284 6003ft 139kts
28-Feb-19 09:05 34.062161 -118.850253 285 6003ft 140kts
28-Feb-19 09:06 34.074145 -118.895314 285 6002ft 141kts
28-Feb-19 09:07 34.086126 -118.939917 285 6002ft 141kts
28-Feb-19 09:08 34.098344 -118.985236 286 6002ft 142kts
28-Feb-19 09:09 34.110565 -119.030549 286 6002ft 142kts
28-Feb-19 09:10 34.126127 -119.074508 292 6002ft 142kts
28-Feb-19 09:11 34.144181 -119.117268 294 6002ft 142kts
28-Feb-19 09:12 34.162280 -119.160089 294 6002ft 143kts
28-Feb-19 09:13 34.180427 -119.203152 294 6002ft 143kts
28-Feb-19 09:14 34.198482 -119.246095 294 6002ft 143kts
28-Feb-19 09:15 34.216550 -119.289149 294 6001ft 143kts
28-Feb-19 09:16 34.234574 -119.332142 294 6001ft 143kts
28-Feb-19 09:17 34.252583 -119.375163 294 6001ft 143kts
28-Feb-19 09:18 34.270529 -119.418158 295 5724ft 144kts
28-Feb-19 09:19 34.288618 -119.461623 295 5118ft 145kts
28-Feb-19 09:20 34.306896 -119.505503 296 4525ft 146kts
28-Feb-19 09:20 34.320926 -119.543168 291 4016ft 148kts
28-Feb-19 09:22 34.345318 -119.593909 298 3258ft 146kts
28-Feb-19 09:22 34.360274 -119.629758 296 2704ft 142kts
28-Feb-19 09:23 34.376958 -119.672773 294 2179ft 137kts
28-Feb-19 09:25 34.394611 -119.719900 294 2068ft 130kts
28-Feb-19 09:25 34.405107 -119.748215 293 1500ft 100kts
28-Feb-19 09:26 34.416154 -119.777892 293 983ft 93kts
28-Feb-19 09:27 34.426768 -119.805926 286 630ft 89kts
28-Feb-19 09:28 34.427891 -119.835044 266 21ft 80kts
28-Feb-19 09:29 34.426759 -119.841340 164 14ft 9kts
28-Feb-19 09:30 34.422983 -119.839013 118 14ft 13kts
28-Feb-19 09:31 34.422624 -119.836121 126 13ft 4kts
28-Feb-19 09:32 34.422602 -119.836037 29 13ft 0kts
28-Feb-19 09:33 34.422602 -119.836037 29 13ft 0kts
28-Feb-19 09:34 34.422602 -119.836037 29 13ft 0kts
28-Feb-19 09:35 34.422602 -119.836037 29 13ft 0kts
28-Feb-19 09:36 34.422602 -119.836037 29 13ft 0kts
28-Feb-19 09:37 34.422602 -119.836037 29 13ft 0kts
28-Feb-19 09:38 34.422602 -119.836037 29 13ft 0kts
28-Feb-19 09:39 34.422602 -119.836037 29 13ft 0kts
28-Feb-19 09:40 34.422602 -119.836037 29 13ft 0kts
28-Feb-19 09:41 34.422602 -119.836037 29 13ft 0kts
28-Feb-19 09:42 34.422602 -119.836037 29 13ft 0kts
28-Feb-19 09:43 34.422602 -119.836037 29 13ft 0kts

Navigation Log

Ident Type
Flight plan parsing failed, navigation log unavailable